createdAt,value
2018-01-27T00:00:41.246Z,6.57
2018-01-27T00:03:09.316Z,6.54
2018-01-27T00:05:37.280Z,6.54
2018-01-27T00:08:05.310Z,6.52
2018-01-27T00:10:33.277Z,6.55
2018-01-27T00:13:01.183Z,6.46
2018-01-27T00:15:29.113Z,6.53
2018-01-27T00:17:57.141Z,6.55
2018-01-27T00:20:25.084Z,6.65
2018-01-27T00:22:53.025Z,6.61
2018-01-27T00:25:20.975Z,6.51
2018-01-27T00:27:49.348Z,6.51
2018-01-27T00:30:17.344Z,6.55
2018-01-27T00:32:45.889Z,6.37
2018-01-27T00:35:13.808Z,6.53
2018-01-27T00:37:41.760Z,6.54
2018-01-27T00:40:09.708Z,6.54
2018-01-27T00:42:37.677Z,6.44
2018-01-27T00:45:06.927Z,6.48
2018-01-27T00:47:34.966Z,6.39
2018-01-27T00:50:02.916Z,6.42
2018-01-27T00:52:30.825Z,6.56
2018-01-27T00:54:59.572Z,6.64
2018-01-27T00:57:27.578Z,6.51
2018-01-27T00:59:55.517Z,6.53
2018-01-27T01:02:23.543Z,6.43
2018-01-27T01:04:52.251Z,6.48
2018-01-27T01:07:20.183Z,6.48
2018-01-27T01:09:48.143Z,6.61
2018-01-27T01:12:16.112Z,6.49
2018-01-27T01:14:44.058Z,6.44
2018-01-27T01:17:12.192Z,6.44
2018-01-27T01:19:40.206Z,6.63
2018-01-27T01:22:08.155Z,6.43
2018-01-27T01:24:36.086Z,6.38
2018-01-27T01:27:04.089Z,6.46
2018-01-27T01:29:32.039Z,6.41
2018-01-27T01:31:59.996Z,6.48
2018-01-27T01:34:27.922Z,6.41
2018-01-27T01:36:55.946Z,6.44
2018-01-27T01:39:24.386Z,6.37
2018-01-27T01:41:52.425Z,6.41
2018-01-27T01:44:26.008Z,6.42
2018-01-27T01:46:54.205Z,6.42
2018-01-27T01:49:23.771Z,6.40
2018-01-27T01:51:51.707Z,6.48
2018-01-27T01:54:19.674Z,6.48
2018-01-27T01:56:47.585Z,6.53
2018-01-27T01:59:15.518Z,6.52
2018-01-27T02:01:43.486Z,6.53
2018-01-27T02:04:11.425Z,6.49
2018-01-27T02:06:39.365Z,6.49
2018-01-27T02:09:07.318Z,6.33
2018-01-27T02:11:35.257Z,6.42
2018-01-27T02:14:03.718Z,6.38
2018-01-27T02:16:31.753Z,6.43
2018-01-27T02:18:59.685Z,6.41
2018-01-27T02:21:27.645Z,6.36
2018-01-27T02:23:55.618Z,6.46
2018-01-27T02:26:23.560Z,6.44
2018-01-27T02:28:51.532Z,6.44
2018-01-27T02:31:19.499Z,6.53
2018-01-27T02:33:47.430Z,6.44
2018-01-27T02:36:15.400Z,6.43
2018-01-27T02:38:43.373Z,6.53
2018-01-27T02:41:11.303Z,6.42
2018-01-27T02:43:39.250Z,6.44
2018-01-27T02:46:07.197Z,6.50
2018-01-27T02:48:35.189Z,6.46
2018-01-27T02:51:03.116Z,6.37
2018-01-27T02:53:31.065Z,6.38
2018-01-27T02:55:58.994Z,6.42
2018-01-27T02:58:26.949Z,6.38
2018-01-27T03:00:54.939Z,6.41
2018-01-27T03:03:23.174Z,6.50
2018-01-27T03:05:51.210Z,6.43
2018-01-27T03:08:19.202Z,6.48
2018-01-27T03:10:47.152Z,6.49
2018-01-27T03:13:15.198Z,6.51
2018-01-27T03:15:43.121Z,6.41
2018-01-27T03:18:11.093Z,6.45
2018-01-27T03:20:39.041Z,6.37
2018-01-27T03:23:06.954Z,6.42
2018-01-27T03:25:35.015Z,6.33
2018-01-27T03:28:02.947Z,6.39
2018-01-27T03:30:30.862Z,6.40
2018-01-27T03:32:58.961Z,6.44
2018-01-27T03:35:26.897Z,6.27
2018-01-27T03:37:55.549Z,6.30
2018-01-27T03:40:23.488Z,6.33
2018-01-27T03:42:51.767Z,6.27
2018-01-27T03:45:19.749Z,6.16
2018-01-27T03:47:47.698Z,6.30
2018-01-27T03:50:15.610Z,6.22
2018-01-27T03:52:43.590Z,6.29
2018-01-27T03:55:11.649Z,6.22
2018-01-27T03:57:39.624Z,6.25
2018-01-27T04:00:07.726Z,6.35
2018-01-27T04:02:36.300Z,6.19
2018-01-27T04:05:04.247Z,6.13
2018-01-27T04:07:32.710Z,5.92
2018-01-27T04:10:00.663Z,5.94
2018-01-27T04:12:29.241Z,5.85
2018-01-27T04:14:57.186Z,5.84
2018-01-27T04:17:26.109Z,5.96
2018-01-27T04:19:54.113Z,5.81
2018-01-27T04:22:22.169Z,5.90
2018-01-27T04:24:50.110Z,5.92
2018-01-27T04:27:18.041Z,5.95
2018-01-27T04:29:45.991Z,5.70
2018-01-27T04:32:14.090Z,5.83
2018-01-27T04:34:42.053Z,5.91
2018-01-27T04:37:10.102Z,5.90
2018-01-27T04:39:38.071Z,5.81
2018-01-27T04:42:06.008Z,5.82
2018-01-27T04:44:33.937Z,5.76
2018-01-27T04:47:01.881Z,5.96
2018-01-27T04:49:29.811Z,5.92
2018-01-27T04:51:57.816Z,5.89
2018-01-27T04:54:25.768Z,5.86
2018-01-27T04:56:53.738Z,5.86
2018-01-27T04:59:22.121Z,5.95
2018-01-27T05:01:50.092Z,5.89
2018-01-27T05:04:18.040Z,5.84
2018-01-27T05:06:45.994Z,5.93
2018-01-27T05:09:13.933Z,5.86
2018-01-27T05:11:42.289Z,5.83
2018-01-27T05:14:10.309Z,5.85
2018-01-27T05:16:38.254Z,5.81
2018-01-27T05:19:06.905Z,5.80
2018-01-27T05:21:34.860Z,5.91
2018-01-27T05:24:02.847Z,5.75
2018-01-27T05:26:30.883Z,5.95
2018-01-27T05:28:59.565Z,5.89
2018-01-27T05:31:27.527Z,5.84
2018-01-27T05:33:55.414Z,5.80
2018-01-27T05:36:23.401Z,5.79
2018-01-27T05:38:51.346Z,5.69
2018-01-27T05:41:19.478Z,5.74
2018-01-27T05:43:47.462Z,5.56
2018-01-27T05:46:15.571Z,5.98
2018-01-27T05:48:44.118Z,5.70
2018-01-27T05:51:12.117Z,5.74
2018-01-27T05:53:40.144Z,5.51
2018-01-27T05:56:08.110Z,5.54
2018-01-27T05:58:36.082Z,5.57
2018-01-27T06:01:04.011Z,5.60
2018-01-27T06:03:31.951Z,5.75
2018-01-27T06:05:59.888Z,5.59
2018-01-27T06:08:27.822Z,5.74
2018-01-27T06:10:55.885Z,5.63
2018-01-27T06:13:23.867Z,5.62
2018-01-27T06:15:51.745Z,5.46
2018-01-27T06:18:19.772Z,5.41
2018-01-27T06:20:47.726Z,5.32
2018-01-27T06:23:15.680Z,5.41
2018-01-27T06:25:43.741Z,5.32
2018-01-27T06:28:11.667Z,5.27
2018-01-27T06:30:39.625Z,5.22
2018-01-27T06:33:07.587Z,5.46
2018-01-27T06:35:35.521Z,5.26
2018-01-27T06:38:03.562Z,5.52
2018-01-27T06:40:31.554Z,5.42
2018-01-27T06:42:59.569Z,5.23
2018-01-27T06:45:27.513Z,5.18
2018-01-27T06:47:55.442Z,5.33
2018-01-27T06:50:23.382Z,5.47
2018-01-27T06:52:51.583Z,5.32
2018-01-27T06:55:19.512Z,5.38
2018-01-27T06:57:47.467Z,5.40
2018-01-27T07:00:15.395Z,5.28
2018-01-27T07:02:43.324Z,5.45
2018-01-27T07:05:11.257Z,5.46
2018-01-27T07:07:39.227Z,5.33
2018-01-27T07:10:07.231Z,5.26
2018-01-27T07:12:35.165Z,5.37
2018-01-27T07:15:03.217Z,5.39
2018-01-27T07:17:31.596Z,5.41
2018-01-27T07:19:59.727Z,5.36
2018-01-27T07:22:28.002Z,5.57
2018-01-27T07:24:56.015Z,5.51
2018-01-27T07:27:23.981Z,5.40
2018-01-27T07:29:52.048Z,5.31
2018-01-27T07:32:20.002Z,5.28
2018-01-27T07:34:47.949Z,5.30
2018-01-27T07:37:16.695Z,5.37
2018-01-27T07:39:45.302Z,5.53
2018-01-27T07:42:15.031Z,5.31
2018-01-27T07:44:43.594Z,5.37
2018-01-27T07:47:11.501Z,5.32
2018-01-27T07:49:39.434Z,5.24
2018-01-27T07:52:08.873Z,5.22
2018-01-27T07:54:36.821Z,5.35
2018-01-27T07:57:06.042Z,5.48
2018-01-27T07:59:33.969Z,5.49
2018-01-27T08:02:01.919Z,5.41
2018-01-27T08:04:30.300Z,5.42
2018-01-27T08:07:04.021Z,5.47
2018-01-27T08:09:31.971Z,5.56
2018-01-27T08:11:59.901Z,5.68
2018-01-27T08:14:27.930Z,5.48
2018-01-27T08:16:55.886Z,5.53
2018-01-27T08:19:25.038Z,5.48
2018-01-27T08:21:52.985Z,5.47
2018-01-27T08:24:20.972Z,5.40
2018-01-27T08:26:48.940Z,5.56
2018-01-27T08:29:16.865Z,5.56
2018-01-27T08:31:44.823Z,5.66
2018-01-27T08:34:12.794Z,5.68
2018-01-27T08:36:40.718Z,5.66
2018-01-27T08:39:08.754Z,5.52
2018-01-27T08:41:36.764Z,5.77
2018-01-27T08:44:04.708Z,5.61
2018-01-27T08:46:32.640Z,5.59
2018-01-27T08:49:00.585Z,5.66
2018-01-27T08:51:28.553Z,5.89
2018-01-27T08:53:56.533Z,5.82
2018-01-27T08:56:24.474Z,5.87
2018-01-27T08:58:52.490Z,5.85
2018-01-27T09:01:20.461Z,5.82
2018-01-27T09:03:48.533Z,5.97
2018-01-27T09:06:16.461Z,6.09
2018-01-27T09:08:44.469Z,6.41
2018-01-27T09:11:13.394Z,6.44
2018-01-27T09:13:41.340Z,5.98
2018-01-27T09:16:09.305Z,5.91
2018-01-27T09:18:37.242Z,5.79
2018-01-27T09:21:06.566Z,5.92
2018-01-27T09:23:34.566Z,6.06
2018-01-27T09:26:03.507Z,6.14
2018-01-27T09:28:31.893Z,6.23
2018-01-27T09:30:59.982Z,6.08
2018-01-27T09:33:28.738Z,6.01
2018-01-27T09:35:56.671Z,6.09
2018-01-27T09:38:25.047Z,6.16
2018-01-27T09:40:53.205Z,6.06
2018-01-27T09:43:21.330Z,6.37
2018-01-27T09:45:49.270Z,6.26
2018-01-27T09:48:17.670Z,6.23
2018-01-27T09:50:47.055Z,6.26
2018-01-27T09:53:15.715Z,6.34
2018-01-27T09:55:43.704Z,6.28
2018-01-27T09:58:11.619Z,6.35
2018-01-27T10:00:39.852Z,6.40
2018-01-27T10:03:07.877Z,6.13
2018-01-27T10:05:35.865Z,6.34
2018-01-27T10:08:03.816Z,6.45
2018-01-27T10:10:31.766Z,6.52
2018-01-27T10:12:59.716Z,6.41
2018-01-27T10:15:27.671Z,6.39
2018-01-27T10:17:55.623Z,6.52
2018-01-27T10:20:23.606Z,6.63
2018-01-27T10:22:51.565Z,6.43
2018-01-27T10:25:19.500Z,6.40
2018-01-27T10:27:47.449Z,6.52
2018-01-27T10:30:15.382Z,6.64
2018-01-27T10:32:43.326Z,6.58
2018-01-27T10:35:11.275Z,6.65
2018-01-27T10:37:39.242Z,6.76
2018-01-27T10:40:07.195Z,6.90
2018-01-27T10:42:35.126Z,6.83
2018-01-27T10:45:03.086Z,7.14
2018-01-27T10:47:31.074Z,7.11
2018-01-27T10:49:58.956Z,7.13
2018-01-27T10:52:26.927Z,7.24
2018-01-27T10:54:54.872Z,7.17
2018-01-27T10:57:22.801Z,7.30
2018-01-27T10:59:50.828Z,7.49
2018-01-27T11:02:18.855Z,7.52
2018-01-27T11:04:46.851Z,7.33
2018-01-27T11:07:14.775Z,7.13
2018-01-27T11:09:42.741Z,7.20
2018-01-27T11:12:10.680Z,7.39
2018-01-27T11:14:38.650Z,7.28
2018-01-27T11:17:06.586Z,7.19
2018-01-27T11:19:34.517Z,7.10
2018-01-27T11:22:02.494Z,7.07
2018-01-27T11:24:30.458Z,7.32
2018-01-27T11:26:58.431Z,7.16
2018-01-27T11:29:26.385Z,6.93
2018-01-27T11:31:54.783Z,7.13
2018-01-27T11:34:22.801Z,7.35
2018-01-27T11:36:50.872Z,7.37
2018-01-27T11:39:18.807Z,7.28
2018-01-27T11:41:46.753Z,7.34
2018-01-27T11:44:14.690Z,7.44
2018-01-27T11:46:42.700Z,7.57
2018-01-27T11:49:10.607Z,7.75
2018-01-27T11:51:38.640Z,7.20
2018-01-27T11:54:06.546Z,7.34
2018-01-27T11:56:34.510Z,7.24
2018-01-27T11:59:02.441Z,7.13
2018-01-27T12:01:30.613Z,7.28
2018-01-27T12:03:58.693Z,7.23
2018-01-27T12:06:26.701Z,6.68
2018-01-27T12:08:54.722Z,6.76
2018-01-27T12:11:22.634Z,6.83
2018-01-27T12:13:50.577Z,6.81
2018-01-27T12:16:18.614Z,6.89
2018-01-27T12:18:46.544Z,6.89
2018-01-27T12:21:14.469Z,6.81
2018-01-27T12:23:42.432Z,6.89
2018-01-27T12:26:10.404Z,6.86
2018-01-27T12:28:38.346Z,6.98
2018-01-27T12:31:06.282Z,7.07
2018-01-27T12:33:34.230Z,7.22
2018-01-27T12:36:02.162Z,6.90
2018-01-27T12:38:30.088Z,7.01
2018-01-27T12:40:58.026Z,7.03
2018-01-27T12:43:25.950Z,6.88
2018-01-27T12:45:53.880Z,6.85
2018-01-27T12:48:21.803Z,6.99
2018-01-27T12:50:49.744Z,7.13
2018-01-27T12:53:17.674Z,7.08
2018-01-27T12:55:45.610Z,7.10
2018-01-27T12:58:13.544Z,7.07
2018-01-27T13:00:41.482Z,7.11
2018-01-27T13:03:09.417Z,7.15
2018-01-27T13:05:37.427Z,7.17
2018-01-27T13:08:05.353Z,7.29
2018-01-27T13:10:33.279Z,7.24
2018-01-27T13:13:01.225Z,7.31
2018-01-27T13:15:29.177Z,7.39
2018-01-27T13:17:57.115Z,7.35
2018-01-27T13:20:25.033Z,7.61
2018-01-27T13:22:52.950Z,7.62
2018-01-27T13:25:20.893Z,7.57
2018-01-27T13:27:48.841Z,7.50
2018-01-27T13:30:16.762Z,7.61
2018-01-27T13:32:44.721Z,7.58
2018-01-27T13:35:12.650Z,7.57
2018-01-27T13:37:40.639Z,7.53
2018-01-27T13:40:08.569Z,7.43
2018-01-27T13:42:36.606Z,7.38
2018-01-27T13:45:04.543Z,7.31
2018-01-27T13:47:32.518Z,7.41
2018-01-27T13:50:00.522Z,7.54
2018-01-27T13:52:28.569Z,7.40
2018-01-27T13:54:56.503Z,7.34
2018-01-27T13:57:24.427Z,7.38
2018-01-27T13:59:52.456Z,7.35
2018-01-27T14:02:20.365Z,7.44
2018-01-27T14:04:48.404Z,7.45
2018-01-27T14:07:16.327Z,7.45
2018-01-27T14:09:44.321Z,7.46
2018-01-27T14:12:12.243Z,7.48
2018-01-27T14:14:40.174Z,7.44
2018-01-27T14:17:08.081Z,7.32
2018-01-27T14:19:36.010Z,7.42
2018-01-27T14:22:03.983Z,7.37
2018-01-27T14:24:31.934Z,7.31
2018-01-27T14:26:59.938Z,7.32
2018-01-27T14:29:27.869Z,7.35
2018-01-27T14:31:56.575Z,7.53
2018-01-27T14:34:24.506Z,7.49
2018-01-27T14:36:52.418Z,7.30
2018-01-27T14:39:20.367Z,7.17
2018-01-27T14:41:48.292Z,7.37
2018-01-27T14:44:16.199Z,7.55
2018-01-27T14:46:44.169Z,7.58
2018-01-27T14:49:12.120Z,7.39
2018-01-27T14:51:40.070Z,7.29
2018-01-27T14:54:08.622Z,7.31
2018-01-27T14:56:36.605Z,7.33
2018-01-27T14:59:04.759Z,7.38
2018-01-27T15:01:32.674Z,7.25
2018-01-27T15:04:00.593Z,7.27
2018-01-27T15:06:28.746Z,7.28
2018-01-27T15:08:56.708Z,7.59
2018-01-27T15:11:24.644Z,7.45
2018-01-27T15:13:52.594Z,7.32
2018-01-27T15:16:20.552Z,7.20
2018-01-27T15:18:48.521Z,7.12
2018-01-27T15:21:16.450Z,7.13
2018-01-27T15:23:44.413Z,6.97
2018-01-27T15:26:12.331Z,6.95
2018-01-27T15:28:40.278Z,6.89
2018-01-27T15:31:09.045Z,6.82
2018-01-27T15:33:37.001Z,6.94
2018-01-27T15:36:04.951Z,6.75
2018-01-27T15:38:32.895Z,6.75
2018-01-27T15:41:00.867Z,6.68
2018-01-27T15:43:28.798Z,6.65
2018-01-27T15:45:56.746Z,6.68
2018-01-27T15:48:24.688Z,6.66
2018-01-27T15:50:52.638Z,6.70
2018-01-27T15:53:20.572Z,6.68
2018-01-27T15:55:48.523Z,6.64
2018-01-27T15:58:16.447Z,6.61
2018-01-27T16:00:44.400Z,6.69
2018-01-27T16:03:12.342Z,6.61
2018-01-27T16:05:40.369Z,6.65
2018-01-27T16:08:08.541Z,6.73
2018-01-27T16:10:36.501Z,6.71
2018-01-27T16:13:04.449Z,6.51
2018-01-27T16:15:32.375Z,6.51
2018-01-27T16:18:00.318Z,6.54
2018-01-27T16:20:28.256Z,6.53
2018-01-27T16:22:56.193Z,6.44
2018-01-27T16:25:24.125Z,6.48
2018-01-27T16:27:52.057Z,6.56
2018-01-27T16:30:20.002Z,6.46
2018-01-27T16:32:47.949Z,6.45
2018-01-27T16:35:15.971Z,6.58
2018-01-27T16:37:43.877Z,6.41
2018-01-27T16:40:11.839Z,6.57
2018-01-27T16:42:39.774Z,6.58
2018-01-27T16:45:07.718Z,6.64
2018-01-27T16:47:35.664Z,6.65
2018-01-27T16:50:03.712Z,6.53
2018-01-27T16:52:31.675Z,6.46
2018-01-27T16:54:59.616Z,6.38
2018-01-27T16:57:28.263Z,6.49
2018-01-27T16:59:56.203Z,6.48
2018-01-27T17:02:24.240Z,6.40
2018-01-27T17:04:52.219Z,6.49
2018-01-27T17:07:20.202Z,6.42
2018-01-27T17:09:49.080Z,6.50
2018-01-27T17:12:17.145Z,6.51
2018-01-27T17:14:45.097Z,6.60
2018-01-27T17:17:13.088Z,6.58
2018-01-27T17:19:41.036Z,6.56
2018-01-27T17:22:09.553Z,6.42
2018-01-27T17:24:37.838Z,6.56
2018-01-27T17:27:06.184Z,6.29
2018-01-27T17:29:34.151Z,6.49
2018-01-27T17:32:02.373Z,6.53
2018-01-27T17:34:30.468Z,6.44
2018-01-27T17:36:58.517Z,6.50
2018-01-27T17:39:26.442Z,6.46
2018-01-27T17:41:54.809Z,6.57
2018-01-27T17:44:22.877Z,6.39
2018-01-27T17:46:51.394Z,6.43
2018-01-27T17:49:19.435Z,6.34
2018-01-27T17:51:47.694Z,6.29
2018-01-27T17:54:15.696Z,6.30
2018-01-27T17:56:43.786Z,6.42
2018-01-27T17:59:11.810Z,6.14
2018-01-27T18:01:39.763Z,6.27
2018-01-27T18:04:07.854Z,6.28
2018-01-27T18:06:36.057Z,6.30
2018-01-27T18:09:04.162Z,6.38
2018-01-27T18:11:32.321Z,6.35
2018-01-27T18:14:00.410Z,6.16
2018-01-27T18:16:29.163Z,6.29
2018-01-27T18:18:57.112Z,6.38
2018-01-27T18:21:25.188Z,6.37
2018-01-27T18:23:53.397Z,6.30
2018-01-27T18:26:22.245Z,6.33
2018-01-27T18:28:50.268Z,6.23
2018-01-27T18:31:18.376Z,6.27
2018-01-27T18:33:46.310Z,6.28
2018-01-27T18:36:14.352Z,6.23
2018-01-27T18:38:42.321Z,6.34
2018-01-27T18:41:10.352Z,6.27
2018-01-27T18:43:38.533Z,6.22
2018-01-27T18:46:06.609Z,6.24
2018-01-27T18:48:36.544Z,6.20
2018-01-27T18:51:05.399Z,6.23
2018-01-27T18:53:34.009Z,6.24
2018-01-27T18:56:02.102Z,6.22
2018-01-27T18:58:30.138Z,6.23
2018-01-27T19:00:58.530Z,6.24
2018-01-27T19:03:26.478Z,6.36
2018-01-27T19:05:54.552Z,6.21
2018-01-27T19:08:22.619Z,6.23
2018-01-27T19:10:51.661Z,6.37
2018-01-27T19:13:20.754Z,6.23
2018-01-27T19:15:48.697Z,6.34
2018-01-27T19:18:16.769Z,6.11
2018-01-27T19:20:45.820Z,6.24
2018-01-27T19:23:13.760Z,6.31
2018-01-27T19:25:41.760Z,6.21
2018-01-27T19:28:09.698Z,6.27
2018-01-27T19:30:37.644Z,6.26
2018-01-27T19:33:05.614Z,6.31
2018-01-27T19:35:33.985Z,6.35
2018-01-27T19:38:02.059Z,6.33
2018-01-27T19:40:30.785Z,6.28
2018-01-27T19:42:58.755Z,6.27
2018-01-27T19:45:26.754Z,6.25
2018-01-27T19:47:55.592Z,6.35
2018-01-27T19:50:23.562Z,6.36
2018-01-27T19:52:52.438Z,6.36
2018-01-27T19:55:20.446Z,6.29
2018-01-27T19:57:48.386Z,6.35
2018-01-27T20:00:17.035Z,6.39
2018-01-27T20:02:45.929Z,6.27
2018-01-27T20:05:13.927Z,6.31
2018-01-27T20:07:41.876Z,6.27
2018-01-27T20:10:09.810Z,6.17
2018-01-27T20:12:37.950Z,6.28
2018-01-27T20:15:06.151Z,6.23
2018-01-27T20:17:34.878Z,6.30
2018-01-27T20:20:02.838Z,6.30
2018-01-27T20:22:30.893Z,6.21
2018-01-27T20:24:58.852Z,6.26
2018-01-27T20:27:27.777Z,6.17
2018-01-27T20:29:55.706Z,6.24
2018-01-27T20:32:23.688Z,6.27
2018-01-27T20:34:51.829Z,6.29
2018-01-27T20:37:19.834Z,6.24
2018-01-27T20:39:47.822Z,6.17
2018-01-27T20:42:15.761Z,6.15
2018-01-27T20:44:44.483Z,6.29
2018-01-27T20:47:13.185Z,6.22
2018-01-27T20:49:41.263Z,6.40
2018-01-27T20:52:09.286Z,6.26
2018-01-27T20:54:37.329Z,6.26
2018-01-27T20:57:05.281Z,6.29
2018-01-27T20:59:33.356Z,6.25
2018-01-27T21:02:01.306Z,6.19
2018-01-27T21:04:29.440Z,6.27
2018-01-27T21:06:57.533Z,6.24
2018-01-27T21:09:25.686Z,6.21
2018-01-27T21:11:53.703Z,6.13
2018-01-27T21:14:21.674Z,6.21
2018-01-27T21:16:49.695Z,6.20
2018-01-27T21:19:17.710Z,6.40
2018-01-27T21:21:45.967Z,6.11
2018-01-27T21:24:13.922Z,6.26
2018-01-27T21:26:41.841Z,6.19
2018-01-27T21:29:09.767Z,6.30
2018-01-27T21:31:37.753Z,6.30
2018-01-27T21:34:05.665Z,6.29
2018-01-27T21:36:33.619Z,6.34
2018-01-27T21:39:01.602Z,6.35
2018-01-27T21:41:29.620Z,6.42
2018-01-27T21:43:57.602Z,6.36
2018-01-27T21:46:25.540Z,6.46
2018-01-27T21:48:53.469Z,6.36
2018-01-27T21:51:21.521Z,6.40
2018-01-27T21:53:49.514Z,6.49
2018-01-27T21:56:17.532Z,6.49
2018-01-27T21:58:45.527Z,6.58
2018-01-27T22:01:13.450Z,6.39
2018-01-27T22:03:41.394Z,6.45
2018-01-27T22:06:09.329Z,6.40
2018-01-27T22:08:37.283Z,6.43
2018-01-27T22:11:05.250Z,6.41
2018-01-27T22:13:33.262Z,6.37
2018-01-27T22:16:01.185Z,6.46
2018-01-27T22:18:29.115Z,6.40
2018-01-27T22:20:57.070Z,6.41
2018-01-27T22:23:24.997Z,6.46
2018-01-27T22:25:53.142Z,6.49
2018-01-27T22:28:21.102Z,6.53
2018-01-27T22:30:49.066Z,6.49
2018-01-27T22:33:17.094Z,6.53
2018-01-27T22:35:45.049Z,6.49
2018-01-27T22:38:12.974Z,6.52
2018-01-27T22:40:40.957Z,6.50
2018-01-27T22:43:08.891Z,6.48
2018-01-27T22:45:36.825Z,6.40
2018-01-27T22:48:04.871Z,6.50
2018-01-27T22:50:32.839Z,6.41
2018-01-27T22:53:00.749Z,6.41
2018-01-27T22:55:28.699Z,6.28
2018-01-27T22:57:56.718Z,6.29
2018-01-27T23:00:24.654Z,6.26
2018-01-27T23:02:52.613Z,6.24
2018-01-27T23:05:20.538Z,6.17
2018-01-27T23:07:48.450Z,6.21
2018-01-27T23:10:16.432Z,6.21
2018-01-27T23:12:44.393Z,6.28
2018-01-27T23:17:47.095Z,6.22
2018-01-27T23:20:16.854Z,6.29
2018-01-27T23:22:45.829Z,6.33
2018-01-27T23:25:13.793Z,6.27
2018-01-27T23:27:42.657Z,6.28
2018-01-27T23:30:10.578Z,6.30
2018-01-27T23:32:38.541Z,6.34
2018-01-27T23:35:06.463Z,6.45
2018-01-27T23:37:34.482Z,6.38
2018-01-27T23:40:02.405Z,6.39
2018-01-27T23:42:30.409Z,6.39
2018-01-27T23:45:00.596Z,6.49
2018-01-27T23:47:34.899Z,6.49
2018-01-27T23:50:03.439Z,6.52
2018-01-27T23:52:32.218Z,6.54
2018-01-27T23:55:00.157Z,6.48
2018-01-27T23:57:28.222Z,6.50
2018-01-27T23:59:56.160Z,6.56
